Time;durP1;ratioP1;P1;durP2;ratioP2;P2;SDS_P1;SDS_P2;PMS_P1;PMS_P2;Temp;Humidity;BMP_temperature;BMP_pressure;BME280_temperature;BME280_humidity;BME280_pressure;Samples;Min_cycle;Max_cycle;Signal;HPM_P1;HPM_P2
2021/12/20 00:02:06;;;;;;;;;;;6.70;88.30;;;;;;5136537;27;19916;-78
2021/12/20 00:04:31;;;;;;;;;;;6.60;88.00;;;;;;5136526;27;19915;-78
2021/12/20 00:06:57;;;;;;;;;;;6.60;88.20;;;;;;5119342;27;20022;-77
2021/12/20 00:09:22;;;;;;;;;;;6.60;88.20;;;;;;5136278;27;20286;-79
2021/12/20 00:11:48;;;;;;;;;;;6.60;88.20;;;;;;5136366;27;19997;-78
2021/12/20 00:14:14;;;;;;;;;;;6.60;88.50;;;;;;5136590;27;19915;-77
2021/12/20 00:16:39;;;;;;;;;;;6.60;88.60;;;;;;5119154;27;20426;-77
2021/12/20 00:19:09;;;;;;;;;;;6.50;88.60;;;;;;5136083;27;20312;-79
2021/12/20 00:21:35;;;;;;;;;;;6.60;88.60;;;;;;5102504;27;19916;-78
2021/12/20 00:24:00;;;;;;;;;;;6.50;88.70;;;;;;5136526;27;20362;-79
2021/12/20 00:26:26;;;;;;;;;;;6.50;88.80;;;;;;5136624;27;19971;-78
2021/12/20 00:28:51;;;;;;;;;;;6.50;88.70;;;;;;5136287;27;19995;-77
2021/12/20 00:31:17;;;;;;;;;;;6.50;88.80;;;;;;5136462;27;19920;-78
2021/12/20 00:33:42;;;;;;;;;;;6.50;89.20;;;;;;5136437;27;19915;-80
2021/12/20 00:36:08;;;;;;;;;;;6.50;89.00;;;;;;5136391;27;19922;-79
2021/12/20 00:41:18;;;;;;;;;;;6.40;89.20;;;;;;5136374;27;19938;-80
2021/12/20 00:43:44;;;;;;;;;;;6.40;89.20;;;;;;5136183;27;19920;-79
2021/12/20 00:46:11;;;;;;;;;;;6.50;89.60;;;;;;5136210;27;19920;-77
2021/12/20 00:48:36;;;;;;;;;;;6.50;89.30;;;;;;5118860;27;20336;-79
2021/12/20 00:51:02;;;;;;;;;;;6.50;89.20;;;;;;5119240;27;19915;-80
2021/12/20 00:53:27;;;;;;;;;;;6.50;89.20;;;;;;5136020;27;19972;-79
2021/12/20 00:55:53;;;;;;;;;;;6.50;88.40;;;;;;5136050;27;19966;-79
2021/12/20 00:58:19;;;;;;;;;;;6.50;88.90;;;;;;5118678;27;19915;-80
2021/12/20 01:00:46;;;;;;;;;;;6.50;89.00;;;;;;5135960;27;19965;-77
2021/12/20 01:03:13;;;;;;;;;;;6.50;89.00;;;;;;5118808;27;19915;-77
2021/12/20 01:05:39;;;;;;;;;;;6.40;89.00;;;;;;5136039;27;20275;-79
2021/12/20 01:08:06;;;;;;;;;;;6.40;88.90;;;;;;5136045;27;19926;-79
2021/12/20 01:10:33;;;;;;;;;;;6.40;88.90;;;;;;5135459;27;19923;-80
2021/12/20 01:13:00;;;;;;;;;;;6.40;89.00;;;;;;5135866;27;19919;-80
2021/12/20 01:15:33;;;;;;;;;;;6.40;89.00;;;;;;5135695;27;19968;-80
2021/12/20 01:17:59;;;;;;;;;;;6.40;89.20;;;;;;5135811;27;19921;-79
2021/12/20 01:20:25;;;;;;;;;;;6.40;89.20;;;;;;5135422;27;19921;-79
2021/12/20 01:22:51;;;;;;;;;;;6.40;89.30;;;;;;5135648;27;20402;-77
2021/12/20 01:25:18;;;;;;;;;;;6.40;89.40;;;;;;5135294;27;19923;-77
2021/12/20 01:27:44;;;;;;;;;;;6.40;89.40;;;;;;5135187;27;19972;-79
2021/12/20 01:30:11;;;;;;;;;;;6.40;89.60;;;;;;5135285;27;19916;-78
2021/12/20 01:32:36;;;;;;;;;;;6.40;89.70;;;;;;5134784;27;19915;-81
2021/12/20 01:35:03;;;;;;;;;;;6.40;89.70;;;;;;5135310;27;20363;-79
2021/12/20 01:37:28;;;;;;;;;;;6.40;90.00;;;;;;5117815;27;19923;-77
2021/12/20 01:39:58;;;;;;;;;;;6.40;89.80;;;;;;5134936;27;19916;-78
2021/12/20 01:42:24;;;;;;;;;;;6.40;89.70;;;;;;5135037;27;19915;-79
2021/12/20 01:44:50;;;;;;;;;;;6.40;89.80;;;;;;5134918;27;19926;-78
2021/12/20 01:47:16;;;;;;;;;;;6.40;90.00;;;;;;5117777;27;19919;-80
2021/12/20 01:49:58;;;;;;;;;;;6.40;90.00;;;;;;5134691;27;19924;-78
2021/12/20 01:52:27;;;;;;;;;;;6.40;89.90;;;;;;5134995;27;19922;-78
2021/12/20 01:54:53;;;;;;;;;;;6.40;90.10;;;;;;5117779;27;20024;-80
2021/12/20 01:57:20;;;;;;;;;;;6.40;90.20;;;;;;5134748;27;19915;-79
2021/12/20 01:59:46;;;;;;;;;;;6.30;90.30;;;;;;5117527;27;19915;-79
2021/12/20 02:02:12;;;;;;;;;;;6.40;90.20;;;;;;5134898;27;19941;-76
2021/12/20 02:04:45;;;;;;;;;;;6.40;90.20;;;;;;5135034;27;20403;-80
2021/12/20 02:07:32;;;;;;;;;;;6.40;90.50;;;;;;5134526;27;19938;-79
2021/12/20 02:09:58;;;;;;;;;;;6.40;90.10;;;;;;5134512;27;19919;-77
2021/12/20 02:12:23;;;;;;;;;;;6.40;90.30;;;;;;5134739;27;19915;-80
2021/12/20 02:14:49;;;;;;;;;;;6.40;90.30;;;;;;5134390;27;19916;-79
2021/12/20 02:17:15;;;;;;;;;;;6.40;90.20;;;;;;5117025;27;19915;-78
2021/12/20 02:19:40;;;;;;;;;;;6.50;90.20;;;;;;5134622;27;19915;-80
2021/12/20 02:22:06;;;;;;;;;;;6.40;90.00;;;;;;5134016;27;20279;-78
2021/12/20 02:24:32;;;;;;;;;;;6.50;90.00;;;;;;5134335;27;19973;-80
2021/12/20 02:26:57;;;;;;;;;;;6.50;89.90;;;;;;5134036;27;19923;-78
2021/12/20 02:29:38;;;;;;;;;;;6.50;89.90;;;;;;5134212;27;19953;-77
2021/12/20 02:37:32;;;;;;;;;;;6.40;90.10;;;;;;5134321;27;19980;-77
2021/12/20 02:39:58;;;;;;;;;;;6.40;89.90;;;;;;5133844;27;20371;-78
2021/12/20 02:42:29;;;;;;;;;;;6.40;90.40;;;;;;5133808;27;20006;-79
2021/12/20 02:45:10;;;;;;;;;;;6.40;90.30;;;;;;5133568;27;19926;-77
2021/12/20 02:47:37;;;;;;;;;;;6.40;90.00;;;;;;5118842;27;19974;-79
2021/12/20 02:50:02;;;;;;;;;;;6.40;89.80;;;;;;5133690;27;19916;-77
2021/12/20 02:52:28;;;;;;;;;;;6.40;89.90;;;;;;5134177;27;19926;-78
2021/12/20 02:54:54;;;;;;;;;;;6.50;90.70;;;;;;5133930;27;20355;-80
2021/12/20 02:57:20;;;;;;;;;;;6.50;90.50;;;;;;5116740;28;20339;-78
2021/12/20 02:59:45;;;;;;;;;;;6.40;90.30;;;;;;5133557;28;19916;-80
2021/12/20 03:02:11;;;;;;;;;;;6.40;89.60;;;;;;5116909;28;19923;-78
2021/12/20 03:04:37;;;;;;;;;;;6.40;89.70;;;;;;5133704;28;19922;-76
2021/12/20 03:07:05;;;;;;;;;;;6.40;89.90;;;;;;5133619;28;19966;-76
2021/12/20 03:09:34;;;;;;;;;;;6.40;90.10;;;;;;5133838;28;20441;-79
2021/12/20 03:11:59;;;;;;;;;;;6.40;89.80;;;;;;5133856;28;19915;-80
2021/12/20 03:14:30;;;;;;;;;;;6.40;90.30;;;;;;5133603;28;19922;-79
2021/12/20 03:16:56;;;;;;;;;;;6.40;90.30;;;;;;5133922;28;19964;-79
2021/12/20 03:19:22;;;;;;;;;;;6.40;90.40;;;;;;5116392;28;19915;-79
2021/12/20 03:21:48;;;;;;;;;;;6.40;90.50;;;;;;5133833;28;19919;-76
2021/12/20 03:24:13;;;;;;;;;;;6.40;90.60;;;;;;5133457;28;20003;-77
2021/12/20 03:26:39;;;;;;;;;;;6.40;91.00;;;;;;5116421;28;20010;-80
2021/12/20 03:29:05;;;;;;;;;;;6.30;90.90;;;;;;5133341;28;19998;-78
2021/12/20 03:31:31;;;;;;;;;;;6.30;91.00;;;;;;5116305;28;19915;-79
2021/12/20 03:33:56;;;;;;;;;;;6.30;90.70;;;;;;5133541;28;19941;-80
2021/12/20 03:36:22;;;;;;;;;;;6.20;90.70;;;;;;5133437;28;19915;-78
2021/12/20 03:38:48;;;;;;;;;;;6.20;90.70;;;;;;5133574;28;19919;-79
2021/12/20 03:41:13;;;;;;;;;;;6.20;90.70;;;;;;5116399;28;20525;-79
2021/12/20 03:43:39;;;;;;;;;;;6.10;91.00;;;;;;5133234;28;19926;-79
2021/12/20 03:46:05;;;;;;;;;;;6.10;90.80;;;;;;5133421;28;19915;-78
2021/12/20 03:48:31;;;;;;;;;;;6.10;90.80;;;;;;5116301;28;19915;-78
2021/12/20 03:50:57;;;;;;;;;;;6.00;90.70;;;;;;5116509;28;19922;-80
2021/12/20 03:53:22;;;;;;;;;;;6.00;90.50;;;;;;5133230;28;19915;-78
2021/12/20 03:55:48;;;;;;;;;;;6.00;90.40;;;;;;5136361;27;19915;-79
2021/12/20 03:58:13;;;;;;;;;;;5.90;90.60;;;;;;5137345;27;19964;-80
2021/12/20 04:00:39;;;;;;;;;;;5.90;91.00;;;;;;5119910;27;20368;-77
2021/12/20 04:03:10;;;;;;;;;;;5.80;90.90;;;;;;5137045;27;19915;-77
2021/12/20 04:05:36;;;;;;;;;;;5.90;91.20;;;;;;5120297;27;20412;-78
2021/12/20 04:08:01;;;;;;;;;;;5.80;90.80;;;;;;5136722;27;19923;-80
2021/12/20 04:10:27;;;;;;;;;;;5.80;91.10;;;;;;5137328;27;20370;-77
2021/12/20 04:12:52;;;;;;;;;;;5.80;90.90;;;;;;5119959;27;19915;-79
2021/12/20 04:15:18;;;;;;;;;;;5.80;90.90;;;;;;5137172;27;20538;-79
2021/12/20 04:17:44;;;;;;;;;;;5.80;90.90;;;;;;5136682;27;20448;-79
2021/12/20 04:20:10;;;;;;;;;;;5.80;90.60;;;;;;5136934;27;19915;-78
2021/12/20 04:22:35;;;;;;;;;;;5.70;90.60;;;;;;5119553;27;19915;-80
2021/12/20 04:25:01;;;;;;;;;;;5.70;90.70;;;;;;5119340;27;19968;-79
2021/12/20 04:27:26;;;;;;;;;;;5.60;90.80;;;;;;5119182;27;19919;-77
2021/12/20 04:29:54;;;;;;;;;;;5.60;90.90;;;;;;5136295;27;19922;-79
2021/12/20 04:32:20;;;;;;;;;;;5.60;90.80;;;;;;5136621;27;20267;-79
2021/12/20 04:34:45;;;;;;;;;;;5.60;90.70;;;;;;5136511;27;19922;-79
2021/12/20 04:37:11;;;;;;;;;;;5.50;90.60;;;;;;5136293;27;19992;-77
2021/12/20 04:39:37;;;;;;;;;;;5.40;90.60;;;;;;5136392;27;19922;-78
2021/12/20 04:42:03;;;;;;;;;;;5.40;90.90;;;;;;5136558;27;20343;-79
2021/12/20 04:44:28;;;;;;;;;;;5.30;90.60;;;;;;5135955;27;19972;-79
2021/12/20 04:46:54;;;;;;;;;;;5.30;90.90;;;;;;5136028;27;19972;-79
2021/12/20 04:49:19;;;;;;;;;;;5.30;90.80;;;;;;5136056;27;19915;-76
2021/12/20 04:51:45;;;;;;;;;;;5.30;91.00;;;;;;5118994;27;19965;-77
2021/12/20 04:54:11;;;;;;;;;;;5.20;90.80;;;;;;5136142;27;19921;-77
2021/12/20 04:56:36;;;;;;;;;;;5.20;91.10;;;;;;5136160;27;19915;-79
2021/12/20 04:59:02;;;;;;;;;;;5.20;91.20;;;;;;5135860;27;20351;-80
2021/12/20 05:01:27;;;;;;;;;;;5.20;91.30;;;;;;5135753;27;19923;-78
2021/12/20 05:03:53;;;;;;;;;;;5.10;91.10;;;;;;5135976;27;19915;-79
2021/12/20 05:06:18;;;;;;;;;;;5.10;91.10;;;;;;5134949;27;19919;-78
2021/12/20 05:08:50;;;;;;;;;;;5.20;91.30;;;;;;5118979;27;19915;-79
2021/12/20 05:11:16;;;;;;;;;;;5.20;91.50;;;;;;5135721;27;19916;-77
2021/12/20 05:13:42;;;;;;;;;;;5.10;91.40;;;;;;5135683;27;20073;-79
2021/12/20 05:16:07;;;;;;;;;;;5.10;91.50;;;;;;5135715;27;19951;-79
2021/12/20 05:18:33;;;;;;;;;;;5.10;91.50;;;;;;5135763;27;19915;-78
2021/12/20 05:20:58;;;;;;;;;;;5.10;91.50;;;;;;5135544;27;19915;-79
2021/12/20 05:23:25;;;;;;;;;;;5.10;91.50;;;;;;5118261;27;20278;-79
2021/12/20 05:25:50;;;;;;;;;;;5.10;91.70;;;;;;5118232;27;19949;-79
2021/12/20 05:28:16;;;;;;;;;;;5.10;91.50;;;;;;5118110;27;20267;-78
2021/12/20 05:30:41;;;;;;;;;;;5.10;91.30;;;;;;5135302;27;19919;-80
2021/12/20 05:33:07;;;;;;;;;;;5.10;91.60;;;;;;5118599;27;19961;-77
2021/12/20 05:35:33;;;;;;;;;;;5.10;91.50;;;;;;5135090;27;19915;-80
2021/12/20 05:37:59;;;;;;;;;;;5.10;91.40;;;;;;5117828;27;19915;-79
2021/12/20 05:40:25;;;;;;;;;;;5.10;91.80;;;;;;5134660;27;19922;-77
2021/12/20 05:42:51;;;;;;;;;;;5.10;91.70;;;;;;5117566;27;20054;-79
2021/12/20 05:45:17;;;;;;;;;;;5.10;91.60;;;;;;5134684;27;19915;-78
2021/12/20 05:47:43;;;;;;;;;;;5.10;91.90;;;;;;5134611;27;20286;-78
2021/12/20 05:50:09;;;;;;;;;;;5.10;91.70;;;;;;5134360;27;19915;-79
2021/12/20 05:52:35;;;;;;;;;;;5.10;91.70;;;;;;5134746;27;19916;-78
2021/12/20 05:55:01;;;;;;;;;;;5.10;91.80;;;;;;5134395;27;19916;-80
2021/12/20 05:57:27;;;;;;;;;;;5.10;91.70;;;;;;5134574;27;19915;-76
2021/12/20 05:59:52;;;;;;;;;;;5.10;91.70;;;;;;5134190;27;19922;-79
2021/12/20 06:02:18;;;;;;;;;;;5.20;91.60;;;;;;5117072;27;19964;-80
2021/12/20 06:04:49;;;;;;;;;;;5.20;91.70;;;;;;5100444;27;19922;-77
2021/12/20 06:07:14;;;;;;;;;;;5.20;91.70;;;;;;5117850;27;19964;-80
2021/12/20 06:09:40;;;;;;;;;;;5.30;91.70;;;;;;5134234;27;19915;-77
2021/12/20 06:12:05;;;;;;;;;;;5.30;91.40;;;;;;5134312;27;20523;-78
2021/12/20 06:14:31;;;;;;;;;;;5.30;91.00;;;;;;5134213;27;19934;-79
2021/12/20 06:16:57;;;;;;;;;;;5.30;90.80;;;;;;5134318;27;19970;-80
2021/12/20 06:19:23;;;;;;;;;;;5.30;90.50;;;;;;5117076;27;20001;-77
2021/12/20 06:21:49;;;;;;;;;;;5.30;90.40;;;;;;5134676;27;20353;-79
2021/12/20 06:24:15;;;;;;;;;;;5.30;90.50;;;;;;5134497;27;19958;-77
2021/12/20 06:26:40;;;;;;;;;;;5.30;90.30;;;;;;5134240;27;19919;-78
2021/12/20 06:29:06;;;;;;;;;;;5.30;89.90;;;;;;5100454;27;19919;-77
2021/12/20 06:31:31;;;;;;;;;;;5.30;90.00;;;;;;5116956;27;19969;-79
2021/12/20 06:33:57;;;;;;;;;;;5.30;89.60;;;;;;5134385;27;19919;-80
2021/12/20 06:36:25;;;;;;;;;;;5.40;90.70;;;;;;5134230;27;19919;-80
2021/12/20 06:38:53;;;;;;;;;;;5.40;90.60;;;;;;5134386;27;19916;-77
2021/12/20 06:41:19;;;;;;;;;;;5.40;90.60;;;;;;5134402;27;19994;-78
2021/12/20 06:43:44;;;;;;;;;;;5.40;89.70;;;;;;5133663;27;20010;-77
2021/12/20 06:46:10;;;;;;;;;;;5.50;89.40;;;;;;5134076;27;19915;-78
2021/12/20 06:48:35;;;;;;;;;;;5.50;89.40;;;;;;5133928;27;20000;-79
2021/12/20 06:51:01;;;;;;;;;;;5.50;89.40;;;;;;5133874;27;19916;-79
2021/12/20 06:53:27;;;;;;;;;;;5.50;89.10;;;;;;5116641;27;19915;-79
2021/12/20 06:55:53;;;;;;;;;;;5.50;89.10;;;;;;5115765;27;19915;-79
2021/12/20 06:58:18;;;;;;;;;;;5.50;89.30;;;;;;5133122;27;20011;-81
2021/12/20 07:00:44;;;;;;;;;;;5.50;90.70;;;;;;5133114;27;20420;-78
2021/12/20 07:03:10;;;;;;;;;;;5.50;89.70;;;;;;5116272;28;19922;-79
2021/12/20 07:05:35;;;;;;;;;;;5.50;90.20;;;;;;5115962;28;19915;-80
2021/12/20 07:08:02;;;;;;;;;;;5.50;90.30;;;;;;5133095;28;19919;-78
2021/12/20 07:10:28;;;;;;;;;;;5.50;89.70;;;;;;5116013;28;19919;-78
2021/12/20 07:12:55;;;;;;;;;;;5.50;89.00;;;;;;5099346;28;19915;-79
2021/12/20 07:15:21;;;;;;;;;;;5.50;89.00;;;;;;5132970;28;19949;-80
2021/12/20 07:17:46;;;;;;;;;;;5.50;89.00;;;;;;5130030;28;19923;-80
2021/12/20 07:20:12;;;;;;;;;;;5.50;89.30;;;;;;5115458;28;19999;-79
2021/12/20 07:22:38;;;;;;;;;;;5.50;89.50;;;;;;5114211;28;20011;-79
2021/12/20 07:25:04;;;;;;;;;;;5.50;89.40;;;;;;5118700;28;19924;-80
2021/12/20 07:27:30;;;;;;;;;;;5.50;89.20;;;;;;5101599;28;19927;-78
2021/12/20 07:29:56;;;;;;;;;;;5.50;89.20;;;;;;5116381;27;19915;-78
2021/12/20 07:32:22;;;;;;;;;;;5.50;89.30;;;;;;5120764;27;19919;-79
2021/12/20 07:34:47;;;;;;;;;;;5.40;89.30;;;;;;5104670;27;19965;-79
2021/12/20 07:37:13;;;;;;;;;;;5.40;89.60;;;;;;5123816;27;20179;-78
2021/12/20 07:39:39;;;;;;;;;;;5.50;89.80;;;;;;5106363;27;19931;-77
2021/12/20 07:42:05;;;;;;;;;;;5.40;90.00;;;;;;5105251;27;20455;-78
2021/12/20 07:44:31;;;;;;;;;;;5.40;90.10;;;;;;5105489;27;19931;-79
2021/12/20 07:46:57;;;;;;;;;;;5.40;90.00;;;;;;5129371;27;20305;-79
2021/12/20 07:49:22;;;;;;;;;;;5.40;90.10;;;;;;5103917;27;19960;-79
2021/12/20 07:51:51;;;;;;;;;;;5.30;90.00;;;;;;5102970;27;20018;-80
2021/12/20 07:54:17;;;;;;;;;;;5.30;89.60;;;;;;5118482;27;19915;-78
2021/12/20 07:56:43;;;;;;;;;;;5.30;89.50;;;;;;5118412;27;19923;-79
2021/12/20 07:59:08;;;;;;;;;;;5.30;89.40;;;;;;5119474;27;19944;-78
2021/12/20 08:01:35;;;;;;;;;;;5.20;89.30;;;;;;5103371;27;19931;-79
2021/12/20 08:04:01;;;;;;;;;;;5.20;89.20;;;;;;5119233;27;19965;-78
2021/12/20 08:06:26;;;;;;;;;;;5.10;88.80;;;;;;5124589;27;19919;-81
2021/12/20 08:08:52;;;;;;;;;;;5.10;88.70;;;;;;5118431;27;19923;-80
2021/12/20 08:11:17;;;;;;;;;;;5.10;88.70;;;;;;5103985;28;19926;-79
2021/12/20 08:13:46;;;;;;;;;;;5.10;88.70;;;;;;5099618;27;20011;-79
2021/12/20 08:16:12;;;;;;;;;;;5.10;89.10;;;;;;5119558;27;19978;-81
2021/12/20 08:18:39;;;;;;;;;;;5.00;89.00;;;;;;5131260;27;19924;-79
2021/12/20 08:21:04;;;;;;;;;;;4.90;88.90;;;;;;5119061;27;19930;-80
2021/12/20 08:23:30;;;;;;;;;;;4.90;88.60;;;;;;5120268;27;20013;-81
2021/12/20 08:25:55;;;;;;;;;;;4.90;88.70;;;;;;5102144;27;20321;-80
2021/12/20 08:28:21;;;;;;;;;;;4.80;89.00;;;;;;5100012;27;19966;-81
2021/12/20 08:30:47;;;;;;;;;;;4.80;89.00;;;;;;5118323;27;19922;-79
2021/12/20 08:33:13;;;;;;;;;;;4.70;89.10;;;;;;5121910;27;20340;-80
2021/12/20 08:35:39;;;;;;;;;;;4.70;89.10;;;;;;5115146;28;19916;-79
2021/12/20 08:38:05;;;;;;;;;;;4.60;89.30;;;;;;5115189;28;19929;-80
2021/12/20 08:40:30;;;;;;;;;;;4.60;89.60;;;;;;5114167;28;19923;-80
2021/12/20 08:42:56;;;;;;;;;;;4.60;89.80;;;;;;5114576;28;19923;-80
2021/12/20 08:45:22;;;;;;;;;;;4.60;89.90;;;;;;5098102;28;19960;-80
2021/12/20 08:47:48;;;;;;;;;;;4.60;89.80;;;;;;5114974;28;19976;-80
2021/12/20 08:50:15;;;;;;;;;;;4.60;90.00;;;;;;5113979;28;19944;-81
2021/12/20 08:52:41;;;;;;;;;;;4.60;90.20;;;;;;5113785;27;20375;-80
2021/12/20 08:55:07;;;;;;;;;;;4.60;90.40;;;;;;5102141;27;19920;-79
2021/12/20 08:57:33;;;;;;;;;;;4.60;90.60;;;;;;5098989;27;19998;-78
2021/12/20 08:59:58;;;;;;;;;;;4.70;90.60;;;;;;5103083;27;20480;-77
2021/12/20 09:02:24;;;;;;;;;;;4.70;90.60;;;;;;5118339;27;20513;-77
2021/12/20 09:04:49;;;;;;;;;;;4.70;90.70;;;;;;5101749;27;19923;-78
2021/12/20 09:07:15;;;;;;;;;;;4.70;90.80;;;;;;5101848;27;19927;-78
2021/12/20 09:09:44;;;;;;;;;;;4.70;90.70;;;;;;5102405;27;19920;-78
2021/12/20 09:12:10;;;;;;;;;;;4.70;90.80;;;;;;5116179;27;20287;-77
2021/12/20 09:14:36;;;;;;;;;;;4.70;90.80;;;;;;5118737;27;19915;-78
2021/12/20 09:17:02;;;;;;;;;;;4.80;90.80;;;;;;5114306;27;19916;-78
2021/12/20 09:19:28;;;;;;;;;;;4.80;90.50;;;;;;5119478;27;20379;-78
2021/12/20 09:21:54;;;;;;;;;;;4.80;90.40;;;;;;5116084;27;19919;-80
2021/12/20 09:24:19;;;;;;;;;;;4.80;90.50;;;;;;5118458;27;19937;-77
2021/12/20 09:26:45;;;;;;;;;;;4.90;90.00;;;;;;5121434;27;19935;-77
2021/12/20 09:29:10;;;;;;;;;;;4.90;89.40;;;;;;5120390;27;19922;-78
2021/12/20 09:31:36;;;;;;;;;;;5.00;89.10;;;;;;5098833;27;19919;-77
2021/12/20 09:34:01;;;;;;;;;;;5.10;89.30;;;;;;5119559;27;19915;-79
2021/12/20 09:36:32;;;;;;;;;;;5.10;89.40;;;;;;5103308;27;20048;-79
2021/12/20 09:38:58;;;;;;;;;;;5.20;89.20;;;;;;5101549;27;19923;-78
2021/12/20 09:41:59;;;;;;;;;;;5.30;89.50;;;;;;5119746;27;19961;-78
2021/12/20 09:44:15;;;;;;;;;;;5.30;89.60;;;;;;5118304;27;19919;-78
2021/12/20 09:46:41;;;;;;;;;;;5.50;90.00;;;;;;5115969;27;19927;-78
2021/12/20 09:49:07;;;;;;;;;;;5.60;89.70;;;;;;5122912;27;20013;-78
2021/12/20 09:51:33;;;;;;;;;;;5.60;89.50;;;;;;5116191;27;19919;-78
2021/12/20 09:53:58;;;;;;;;;;;5.70;88.80;;;;;;5104701;27;19919;-80
2021/12/20 09:56:26;;;;;;;;;;;5.70;89.10;;;;;;5114322;27;20014;-79
2021/12/20 09:58:53;;;;;;;;;;;5.80;89.70;;;;;;5120975;27;19926;-79
2021/12/20 10:01:19;;;;;;;;;;;5.90;89.10;;;;;;5100872;27;19976;-79
2021/12/20 10:03:45;;;;;;;;;;;6.00;88.20;;;;;;5119133;27;19915;-79
2021/12/20 10:06:11;;;;;;;;;;;6.10;87.40;;;;;;5115711;27;20323;-79
2021/12/20 10:08:41;;;;;;;;;;;6.20;87.60;;;;;;5099645;28;19923;-81
2021/12/20 10:11:16;;;;;;;;;;;6.20;89.30;;;;;;5118354;27;20290;-80
2021/12/20 10:13:42;;;;;;;;;;;6.30;87.60;;;;;;5120236;27;20378;-79
2021/12/20 10:16:22;;;;;;;;;;;6.40;87.70;;;;;;5115366;27;19919;-78
2021/12/20 10:18:48;;;;;;;;;;;6.40;87.50;;;;;;5115517;27;20287;-79
2021/12/20 10:21:14;;;;;;;;;;;6.50;86.80;;;;;;5136016;27;19919;-80
2021/12/20 10:23:42;;;;;;;;;;;6.50;88.00;;;;;;5117059;27;19969;-79
2021/12/20 10:26:34;;;;;;;;;;;6.50;88.50;;;;;;5120902;27;19999;-80
2021/12/20 10:28:59;;;;;;;;;;;6.60;87.10;;;;;;5116401;27;19923;-81
2021/12/20 10:31:27;;;;;;;;;;;6.60;87.00;;;;;;5134609;27;19927;-81
2021/12/20 10:33:53;;;;;;;;;;;6.60;86.60;;;;;;5102323;27;20008;-80
2021/12/20 10:36:19;;;;;;;;;;;6.70;86.10;;;;;;5119671;27;19919;-82
2021/12/20 10:38:46;;;;;;;;;;;6.80;86.30;;;;;;5114432;27;19931;-83
2021/12/20 10:41:17;;;;;;;;;;;6.80;86.30;;;;;;5100404;27;20007;-82
2021/12/20 10:43:52;;;;;;;;;;;6.80;86.10;;;;;;5117479;27;19944;-81
2021/12/20 10:46:21;;;;;;;;;;;7.00;86.00;;;;;;5097872;27;20170;-80
2021/12/20 10:48:50;;;;;;;;;;;7.00;85.80;;;;;;5104920;27;19962;-80
2021/12/20 10:51:17;;;;;;;;;;;7.10;85.70;;;;;;5117221;27;19915;-81
2021/12/20 10:53:57;;;;;;;;;;;7.10;86.50;;;;;;5115685;27;19923;-79
2021/12/20 10:56:23;;;;;;;;;;;7.20;85.70;;;;;;5118911;27;19923;-80
2021/12/20 10:58:48;;;;;;;;;;;7.30;85.30;;;;;;5102567;28;20298;-79
2021/12/20 11:01:22;;;;;;;;;;;7.30;85.40;;;;;;5117075;27;19924;-80
2021/12/20 11:03:58;;;;;;;;;;;7.40;85.00;;;;;;5115073;27;19920;-81
2021/12/20 11:06:26;;;;;;;;;;;7.40;85.20;;;;;;5119673;28;20367;-79
2021/12/20 11:09:04;;;;;;;;;;;7.50;84.70;;;;;;5118713;28;20014;-81
2021/12/20 11:11:31;;;;;;;;;;;7.60;84.10;;;;;;5099839;28;19919;-81
2021/12/20 11:14:00;;;;;;;;;;;7.70;84.30;;;;;;5112954;28;20038;-79
2021/12/20 11:16:27;;;;;;;;;;;7.80;84.60;;;;;;5117283;28;19986;-82
2021/12/20 11:19:13;;;;;;;;;;;7.90;84.20;;;;;;5097337;28;20002;-80
2021/12/20 11:21:45;;;;;;;;;;;7.90;83.80;;;;;;5100138;28;20382;-80
2021/12/20 11:24:12;;;;;;;;;;;8.00;83.40;;;;;;5098657;28;19923;-81
2021/12/20 11:26:38;;;;;;;;;;;8.00;82.10;;;;;;5120705;28;20026;-81
2021/12/20 11:29:03;;;;;;;;;;;8.10;82.40;;;;;;5083760;28;20010;-83
2021/12/20 11:31:29;;;;;;;;;;;8.20;82.20;;;;;;5102357;28;20063;-81
2021/12/20 11:33:55;;;;;;;;;;;8.30;82.00;;;;;;5112143;28;20054;-81
2021/12/20 11:36:20;;;;;;;;;;;8.40;80.80;;;;;;5085836;28;19920;-82
2021/12/20 11:38:46;;;;;;;;;;;8.50;82.80;;;;;;5117279;28;19938;-81
2021/12/20 11:41:12;;;;;;;;;;;8.60;79.80;;;;;;5100747;28;20003;-82
2021/12/20 11:43:38;;;;;;;;;;;8.70;79.70;;;;;;5114690;28;20379;-82
2021/12/20 11:46:05;;;;;;;;;;;8.90;79.80;;;;;;5103368;28;19915;-81
2021/12/20 11:48:32;;;;;;;;;;;9.00;79.30;;;;;;5109586;28;19928;-81
2021/12/20 11:50:58;;;;;;;;;;;9.10;79.00;;;;;;5115409;28;20008;-84
2021/12/20 11:53:24;;;;;;;;;;;9.20;79.00;;;;;;5098951;28;19927;-83
2021/12/20 11:55:51;;;;;;;;;;;9.30;82.50;;;;;;5102659;28;20264;-82
2021/12/20 11:58:20;;;;;;;;;;;9.40;78.40;;;;;;5116483;28;20782;-81
2021/12/20 12:00:50;;;;;;;;;;;9.50;77.60;;;;;;5097061;28;19916;-83
2021/12/20 12:03:16;;;;;;;;;;;9.60;77.30;;;;;;5100729;28;19931;-82
2021/12/20 12:05:47;;;;;;;;;;;9.80;77.10;;;;;;5119760;28;19915;-82
2021/12/20 12:08:22;;;;;;;;;;;9.90;79.00;;;;;;5117021;28;19920;-83
2021/12/20 12:10:48;;;;;;;;;;;10.00;74.10;;;;;;5102690;28;20042;-82
2021/12/20 12:13:17;;;;;;;;;;;10.00;74.90;;;;;;5084619;28;20649;-83
2021/12/20 12:15:53;;;;;;;;;;;10.20;73.30;;;;;;5081623;27;20053;-82
2021/12/20 12:18:19;;;;;;;;;;;10.40;76.30;;;;;;5121687;27;19915;-82
2021/12/20 12:20:47;;;;;;;;;;;10.60;72.90;;;;;;5121050;27;19983;-81
2021/12/20 12:23:14;;;;;;;;;;;10.70;73.10;;;;;;5120566;27;19915;-81
2021/12/20 12:25:43;;;;;;;;;;;10.80;72.20;;;;;;5101029;27;19916;-84
2021/12/20 12:28:09;;;;;;;;;;;11.00;72.20;;;;;;5116837;27;20049;-82
2021/12/20 12:30:35;;;;;;;;;;;11.00;71.60;;;;;;5121345;27;20354;-82
2021/12/20 12:33:01;;;;;;;;;;;11.20;72.70;;;;;;5104335;27;19923;-82
2021/12/20 12:35:39;;;;;;;;;;;11.20;67.50;;;;;;5100047;27;20268;-80
2021/12/20 12:38:15;;;;;;;;;;;11.40;70.10;;;;;;5103239;27;19919;-81
2021/12/20 12:40:42;;;;;;;;;;;11.50;70.70;;;;;;5122975;27;19927;-82
2021/12/20 12:43:08;;;;;;;;;;;11.50;68.10;;;;;;5099789;27;19966;-81
2021/12/20 12:45:47;;;;;;;;;;;11.70;68.40;;;;;;5108380;27;20232;-81
2021/12/20 12:48:31;;;;;;;;;;;11.60;63.70;;;;;;5102213;27;20030;-82
2021/12/20 12:50:57;;;;;;;;;;;11.70;67.10;;;;;;5117917;27;20432;-81
2021/12/20 12:53:38;;;;;;;;;;;11.60;66.20;;;;;;5099170;27;19924;-82
2021/12/20 12:56:40;;;;;;;;;;;11.60;66.80;;;;;;5107510;27;19923;-82
2021/12/20 12:59:11;;;;;;;;;;;11.30;65.00;;;;;;5066960;28;19916;-82
2021/12/20 13:01:46;;;;;;;;;;;11.40;67.20;;;;;;5109888;27;19922;-81
2021/12/20 13:04:11;;;;;;;;;;;11.10;65.00;;;;;;5100909;27;19922;-82
2021/12/20 13:06:37;;;;;;;;;;;11.10;66.50;;;;;;5086534;27;19919;-83
2021/12/20 13:09:03;;;;;;;;;;;11.00;65.90;;;;;;5103027;27;19924;-83
2021/12/20 13:11:30;;;;;;;;;;;11.10;67.90;;;;;;5121670;27;19923;-80
2021/12/20 13:14:12;;;;;;;;;;;11.30;66.40;;;;;;5083759;27;20244;-81
2021/12/20 13:16:50;;;;;;;;;;;11.00;67.20;;;;;;5118199;27;19923;-82
2021/12/20 13:19:26;;;;;;;;;;;11.00;66.50;;;;;;5099817;27;19968;-82
2021/12/20 13:22:02;;;;;;;;;;;11.20;68.40;;;;;;5101320;27;19924;-83
2021/12/20 13:24:28;;;;;;;;;;;11.30;67.50;;;;;;5114944;27;19970;-83
2021/12/20 13:27:04;;;;;;;;;;;11.20;66.30;;;;;;5116466;27;20355;-84
2021/12/20 13:29:29;;;;;;;;;;;11.30;66.90;;;;;;5103591;27;20286;-81
2021/12/20 13:32:05;;;;;;;;;;;11.30;67.50;;;;;;5099156;27;19923;-81
2021/12/20 13:34:31;;;;;;;;;;;11.00;65.80;;;;;;5102116;27;19923;-81
2021/12/20 13:36:57;;;;;;;;;;;11.20;66.20;;;;;;5084759;27;19923;-82
2021/12/20 13:39:23;;;;;;;;;;;11.10;65.10;;;;;;5082002;27;20594;-83
2021/12/20 13:41:48;;;;;;;;;;;11.00;64.90;;;;;;5097884;27;19923;-81
2021/12/20 13:44:19;;;;;;;;;;;11.10;66.50;;;;;;5100655;27;19923;-82
2021/12/20 13:46:48;;;;;;;;;;;11.50;66.90;;;;;;5117952;27;19985;-83
2021/12/20 13:49:24;;;;;;;;;;;11.50;66.50;;;;;;5082881;27;19920;-82
2021/12/20 13:51:49;;;;;;;;;;;11.50;65.60;;;;;;5115680;27;19965;-83
2021/12/20 13:54:16;;;;;;;;;;;11.70;64.50;;;;;;5118097;27;19916;-83
2021/12/20 13:56:43;;;;;;;;;;;11.70;64.30;;;;;;5116013;27;19916;-83
2021/12/20 13:59:09;;;;;;;;;;;11.90;64.60;;;;;;5117207;27;20361;-84
2021/12/20 14:01:35;;;;;;;;;;;11.90;66.00;;;;;;5100495;27;20375;-84
2021/12/20 14:04:01;;;;;;;;;;;11.80;63.50;;;;;;5087104;27;19923;-81
2021/12/20 14:06:40;;;;;;;;;;;11.80;64.10;;;;;;5103879;27;19965;-81
2021/12/20 14:09:20;;;;;;;;;;;11.60;64.90;;;;;;5126067;27;19915;-81
2021/12/20 14:11:46;;;;;;;;;;;11.50;64.40;;;;;;5099537;27;19923;-81
2021/12/20 14:14:11;;;;;;;;;;;11.20;63.60;;;;;;5084018;27;19920;-80
2021/12/20 14:16:56;;;;;;;;;;;11.00;65.70;;;;;;5112425;27;19968;-81
2021/12/20 14:19:42;;;;;;;;;;;10.80;66.10;;;;;;5117322;27;19923;-81
2021/12/20 14:22:07;;;;;;;;;;;10.40;67.70;;;;;;5116513;27;19915;-81
2021/12/20 14:24:37;;;;;;;;;;;9.90;69.20;;;;;;5116715;27;19923;-81
2021/12/20 14:27:03;;;;;;;;;;;9.50;70.70;;;;;;5117496;27;19935;-81
2021/12/20 14:29:32;;;;;;;;;;;9.10;71.50;;;;;;5118627;27;19923;-82
2021/12/20 14:32:00;;;;;;;;;;;8.80;73.50;;;;;;5085813;27;20417;-82
2021/12/20 14:34:34;;;;;;;;;;;8.50;73.90;;;;;;5116387;27;19919;-79
2021/12/20 14:37:11;;;;;;;;;;;8.30;75.10;;;;;;5117675;27;19923;-83
2021/12/20 14:39:42;;;;;;;;;;;8.10;76.10;;;;;;5099501;28;19915;-81